createdAt,value
2019-03-31T00:01:20.909Z,32.08
2019-03-31T00:03:47.874Z,32.28
2019-03-31T00:06:14.842Z,31.62
2019-03-31T00:08:43.128Z,30.00
2019-03-31T00:11:09.992Z,30.52
2019-03-31T00:13:55.615Z,33.95
2019-03-31T00:16:22.343Z,32.17
2019-03-31T00:18:59.442Z,33.10
2019-03-31T00:21:36.842Z,33.33
2019-03-31T00:23:55.283Z,33.50
2019-03-31T00:26:22.182Z,32.93
2019-03-31T00:28:49.150Z,39.48
2019-03-31T00:31:22.073Z,32.85
2019-03-31T00:33:44.353Z,40.92
2019-03-31T00:36:11.535Z,34.33
2019-03-31T00:38:38.839Z,35.05
2019-03-31T00:41:05.781Z,40.55
2019-03-31T00:43:34.896Z,33.92
2019-03-31T00:46:01.747Z,33.88
2019-03-31T00:48:29.124Z,33.28
2019-03-31T00:50:55.958Z,35.98
2019-03-31T00:53:22.789Z,34.85
2019-03-31T00:55:49.635Z,34.80
2019-03-31T00:58:16.523Z,34.05
2019-03-31T01:01:09.936Z,45.03
2019-03-31T01:03:36.657Z,37.33
2019-03-31T01:06:03.938Z,38.60
2019-03-31T01:08:34.611Z,42.58
2019-03-31T01:11:04.370Z,45.10
2019-03-31T01:13:31.401Z,45.12
2019-03-31T01:16:00.152Z,42.62
2019-03-31T01:18:27.163Z,41.92
2019-03-31T01:20:53.925Z,43.28
2019-03-31T01:23:20.987Z,44.05
2019-03-31T01:25:51.050Z,43.30
2019-03-31T01:28:18.349Z,43.20
2019-03-31T01:30:57.347Z,42.48
2019-03-31T01:33:24.240Z,42.43
2019-03-31T01:35:51.127Z,45.52
2019-03-31T01:38:18.162Z,45.30
2019-03-31T01:40:45.230Z,45.80
2019-03-31T01:43:12.354Z,53.17
2019-03-31T01:45:39.151Z,49.55
2019-03-31T01:48:06.580Z,45.65
2019-03-31T01:50:33.493Z,47.80
2019-03-31T01:53:00.137Z,47.33
2019-03-31T01:55:35.765Z,47.25
2019-03-31T01:58:09.232Z,46.25
2019-03-31T02:00:53.012Z,49.35
2019-03-31T02:03:20.173Z,47.75
2019-03-31T02:05:46.887Z,47.73
2019-03-31T02:08:14.259Z,49.13
2019-03-31T02:10:41.050Z,44.55
2019-03-31T02:13:07.937Z,47.17
2019-03-31T02:15:34.686Z,50.12
2019-03-31T02:18:01.452Z,50.55
2019-03-31T02:20:28.138Z,47.13
2019-03-31T02:22:54.861Z,48.75
2019-03-31T02:25:21.949Z,47.08
2019-03-31T02:27:48.635Z,47.98
2019-03-31T02:30:16.192Z,45.43
2019-03-31T02:32:43.093Z,47.75
2019-03-31T02:35:16.906Z,48.60
2019-03-31T02:38:01.474Z,50.95
2019-03-31T02:40:28.146Z,46.60
2019-03-31T02:43:22.942Z,49.13
2019-03-31T02:45:50.072Z,46.00
2019-03-31T02:48:17.099Z,48.68
2019-03-31T02:50:53.141Z,49.95
2019-03-31T02:53:21.264Z,50.80
2019-03-31T02:55:48.156Z,50.67
2019-03-31T02:58:16.422Z,49.55
2019-03-31T03:00:54.520Z,50.60
2019-03-31T03:03:22.662Z,51.20
2019-03-31T03:05:51.654Z,51.40
2019-03-31T03:08:23.226Z,49.83
2019-03-31T03:10:57.665Z,50.38
2019-03-31T03:13:28.299Z,49.55
2019-03-31T03:16:23.009Z,52.55
2019-03-31T03:18:52.977Z,48.50
2019-03-31T03:21:23.729Z,49.53
2019-03-31T03:23:49.340Z,50.53
2019-03-31T03:26:16.075Z,49.23
2019-03-31T03:28:42.845Z,49.73
2019-03-31T03:31:15.090Z,48.38
2019-03-31T03:33:38.292Z,48.98
2019-03-31T03:36:05.014Z,52.58
2019-03-31T03:38:31.821Z,49.45
2019-03-31T03:40:58.470Z,51.10
2019-03-31T03:43:25.130Z,50.98
2019-03-31T03:45:51.809Z,56.20
2019-03-31T03:48:18.451Z,55.58
2019-03-31T03:51:01.548Z,54.40
2019-03-31T03:53:28.215Z,50.55
2019-03-31T03:55:54.856Z,51.02
2019-03-31T03:58:21.795Z,53.63
2019-03-31T04:00:56.307Z,53.63
2019-03-31T04:03:30.732Z,56.15
2019-03-31T04:06:09.383Z,55.75
2019-03-31T04:08:36.185Z,58.08
2019-03-31T04:11:14.527Z,55.00
2019-03-31T04:13:41.288Z,50.55
2019-03-31T04:16:07.922Z,55.23
2019-03-31T04:18:34.549Z,55.03
2019-03-31T04:21:01.373Z,53.20
2019-03-31T04:23:28.045Z,54.80
2019-03-31T04:26:00.703Z,52.95
2019-03-31T04:28:30.744Z,52.60
2019-03-31T04:30:59.222Z,56.65
2019-03-31T04:33:25.956Z,50.95
2019-03-31T04:36:00.258Z,52.73
2019-03-31T04:38:26.977Z,54.83
2019-03-31T04:40:53.767Z,53.85
2019-03-31T04:43:21.632Z,54.90
2019-03-31T04:45:48.267Z,53.40
2019-03-31T04:48:14.979Z,53.33
2019-03-31T04:50:42.174Z,54.35
2019-03-31T04:53:08.873Z,54.30
2019-03-31T04:55:35.524Z,54.67
2019-03-31T04:58:05.216Z,55.23
2019-03-31T05:00:31.858Z,55.40
2019-03-31T05:02:58.531Z,53.42
2019-03-31T05:05:25.698Z,57.33
2019-03-31T05:07:52.405Z,55.05
2019-03-31T05:10:19.106Z,55.80
2019-03-31T05:12:45.844Z,58.83
2019-03-31T05:15:12.565Z,57.53
2019-03-31T05:17:39.634Z,57.53
2019-03-31T05:20:06.589Z,58.10
2019-03-31T05:22:33.304Z,55.12
2019-03-31T05:25:00.052Z,54.40
2019-03-31T05:27:26.776Z,54.00
2019-03-31T05:29:53.462Z,54.57
2019-03-31T05:32:20.189Z,54.13
2019-03-31T05:34:46.810Z,48.30
2019-03-31T05:37:13.455Z,51.90
2019-03-31T05:39:40.413Z,49.50
2019-03-31T05:42:07.043Z,47.90
2019-03-31T05:44:33.693Z,50.33
2019-03-31T05:47:00.347Z,47.17
2019-03-31T05:49:27.550Z,47.97
2019-03-31T05:52:24.963Z,43.70
2019-03-31T05:54:49.471Z,43.48
2019-03-31T05:57:16.118Z,43.40
2019-03-31T05:59:43.271Z,45.80
2019-03-31T06:02:09.942Z,41.47
2019-03-31T06:04:36.741Z,43.00
2019-03-31T06:07:04.141Z,43.25
2019-03-31T06:09:30.865Z,38.67
2019-03-31T06:11:57.729Z,50.23
2019-03-31T06:14:24.372Z,43.90
2019-03-31T06:16:51.483Z,45.77
2019-03-31T06:19:18.125Z,42.03
2019-03-31T06:21:44.793Z,42.60
2019-03-31T06:24:11.536Z,42.20
2019-03-31T06:26:38.671Z,42.50
2019-03-31T06:29:05.413Z,38.55
2019-03-31T06:31:35.342Z,38.10
2019-03-31T06:34:02.070Z,37.27
2019-03-31T06:36:28.741Z,38.23
2019-03-31T06:38:55.396Z,41.08
2019-03-31T06:41:22.031Z,38.15
2019-03-31T06:43:48.813Z,38.17
2019-03-31T06:46:15.941Z,40.30
2019-03-31T06:48:42.572Z,40.23
2019-03-31T06:51:09.258Z,39.93
2019-03-31T06:53:36.701Z,38.23
2019-03-31T06:56:03.461Z,38.77
2019-03-31T06:58:31.726Z,40.03
2019-03-31T07:00:58.376Z,38.73
2019-03-31T07:03:25.059Z,40.30
2019-03-31T07:05:51.777Z,40.05
2019-03-31T07:08:18.481Z,37.93
2019-03-31T07:10:47.090Z,40.33
2019-03-31T07:13:15.220Z,39.03
2019-03-31T07:15:41.812Z,35.75
2019-03-31T07:18:08.522Z,38.25
2019-03-31T07:20:35.173Z,36.53
2019-03-31T07:23:01.927Z,34.33
2019-03-31T07:25:28.558Z,34.23
2019-03-31T07:27:55.402Z,31.97
2019-03-31T07:30:22.853Z,34.43
2019-03-31T07:32:49.600Z,33.87
2019-03-31T07:35:18.605Z,31.87
2019-03-31T07:37:47.608Z,29.73
2019-03-31T07:40:15.593Z,32.23
2019-03-31T07:42:42.386Z,31.93
2019-03-31T07:45:10.395Z,31.63
2019-03-31T07:47:38.074Z,31.07
2019-03-31T07:50:05.494Z,33.23
2019-03-31T07:52:32.146Z,31.23
2019-03-31T07:54:58.886Z,32.90
2019-03-31T07:57:25.522Z,31.03
2019-03-31T07:59:58.438Z,30.80
2019-03-31T08:02:25.627Z,29.60
2019-03-31T08:04:52.497Z,30.33
2019-03-31T08:07:22.483Z,31.77
2019-03-31T08:09:52.228Z,31.73
2019-03-31T08:12:19.026Z,32.33
2019-03-31T08:14:45.840Z,34.43
2019-03-31T08:17:12.656Z,34.57
2019-03-31T08:19:39.891Z,34.07
2019-03-31T08:22:06.634Z,33.10
2019-03-31T08:24:43.311Z,35.92
2019-03-31T08:27:09.995Z,32.57
2019-03-31T08:29:36.648Z,35.23
2019-03-31T08:32:06.556Z,36.77
2019-03-31T08:34:33.777Z,35.13
2019-03-31T08:37:00.506Z,35.83
2019-03-31T08:39:28.132Z,33.33
2019-03-31T08:41:54.808Z,32.10
2019-03-31T08:44:21.476Z,31.70
2019-03-31T08:46:48.459Z,32.60
2019-03-31T08:49:15.199Z,30.50
2019-03-31T08:51:42.197Z,31.67
2019-03-31T08:54:11.664Z,33.43
2019-03-31T08:56:38.793Z,30.53
2019-03-31T08:59:08.753Z,29.47
2019-03-31T09:01:44.139Z,28.03
2019-03-31T09:04:08.402Z,29.10
2019-03-31T09:06:36.142Z,26.37
2019-03-31T09:09:03.202Z,27.60
2019-03-31T09:11:29.868Z,25.47
2019-03-31T09:13:57.696Z,24.53
2019-03-31T09:16:24.320Z,24.87
2019-03-31T09:18:50.940Z,24.53
2019-03-31T09:21:17.659Z,24.37
2019-03-31T09:23:45.161Z,25.77
2019-03-31T09:26:11.869Z,22.47
2019-03-31T09:28:38.564Z,23.23
2019-03-31T09:31:05.460Z,21.97
2019-03-31T09:33:32.129Z,20.37
2019-03-31T09:35:58.796Z,24.47
2019-03-31T09:38:25.622Z,20.97
2019-03-31T09:40:52.243Z,21.27
2019-03-31T09:43:19.055Z,21.93
2019-03-31T09:45:45.665Z,20.20
2019-03-31T09:48:12.443Z,22.43
2019-03-31T09:50:39.101Z,22.60
2019-03-31T09:53:05.805Z,22.53
2019-03-31T09:55:32.622Z,23.00
2019-03-31T09:57:59.761Z,22.07
2019-03-31T10:00:53.475Z,22.67
2019-03-31T10:03:26.465Z,21.33
2019-03-31T10:05:53.515Z,20.63
2019-03-31T10:08:22.284Z,19.93
2019-03-31T10:10:48.627Z,20.47
2019-03-31T10:13:15.421Z,23.37
2019-03-31T10:15:42.211Z,22.40
2019-03-31T10:18:08.864Z,21.10
2019-03-31T10:20:35.450Z,22.33
2019-03-31T10:23:02.146Z,23.13
2019-03-31T10:25:29.387Z,22.03
2019-03-31T10:27:56.463Z,22.37
2019-03-31T10:30:37.237Z,23.97
2019-03-31T10:33:03.976Z,22.83
2019-03-31T10:35:30.903Z,23.07
2019-03-31T10:37:57.621Z,23.17
2019-03-31T10:40:24.264Z,21.90
2019-03-31T10:42:51.143Z,21.03
2019-03-31T10:45:17.897Z,20.67
2019-03-31T10:47:44.587Z,21.43
2019-03-31T10:50:11.363Z,21.53
2019-03-31T10:53:01.323Z,20.03
2019-03-31T10:55:28.158Z,19.15
2019-03-31T10:57:56.985Z,20.20
2019-03-31T11:00:36.508Z,21.27
2019-03-31T11:03:03.640Z,21.50
2019-03-31T11:05:30.295Z,21.67
2019-03-31T11:07:57.181Z,21.23
2019-03-31T11:10:23.960Z,21.57
2019-03-31T11:12:50.982Z,21.17
2019-03-31T11:15:17.591Z,20.60
2019-03-31T11:17:44.190Z,20.20
2019-03-31T11:20:10.942Z,19.13
2019-03-31T11:22:41.877Z,18.73
2019-03-31T11:25:20.334Z,20.67
2019-03-31T11:27:37.665Z,19.25
2019-03-31T11:30:04.891Z,19.23
2019-03-31T11:32:34.793Z,22.63
2019-03-31T11:35:01.464Z,19.87
2019-03-31T11:37:28.148Z,21.82
2019-03-31T11:39:54.740Z,21.27
2019-03-31T11:42:21.436Z,20.23
2019-03-31T11:44:48.144Z,19.62
2019-03-31T11:47:14.797Z,17.60
2019-03-31T11:49:58.823Z,19.30
2019-03-31T11:52:31.827Z,19.48
2019-03-31T11:54:58.523Z,19.20
2019-03-31T11:57:25.631Z,19.43
2019-03-31T11:59:52.572Z,19.40
2019-03-31T12:02:27.067Z,20.00
2019-03-31T12:04:47.815Z,20.08
2019-03-31T12:07:27.381Z,19.82
2019-03-31T12:09:43.851Z,20.68
2019-03-31T12:12:10.653Z,20.57
2019-03-31T12:14:37.440Z,18.98
2019-03-31T12:17:08.325Z,19.52
2019-03-31T12:19:35.054Z,19.13
2019-03-31T12:22:05.163Z,20.25
2019-03-31T12:24:31.902Z,20.17
2019-03-31T12:26:59.069Z,18.77
2019-03-31T12:29:26.249Z,18.87
2019-03-31T12:31:53.003Z,17.85
2019-03-31T12:34:19.689Z,18.40
2019-03-31T12:36:46.379Z,18.15
2019-03-31T12:39:13.071Z,18.82
2019-03-31T12:41:39.731Z,17.00
2019-03-31T12:44:06.833Z,17.42
2019-03-31T12:46:36.616Z,16.23
2019-03-31T12:49:03.253Z,16.45
2019-03-31T12:51:29.966Z,17.37
2019-03-31T12:53:56.977Z,16.20
2019-03-31T12:56:24.025Z,15.32
2019-03-31T12:58:50.748Z,13.95
2019-03-31T13:01:18.110Z,14.35
2019-03-31T13:03:44.800Z,14.95
2019-03-31T13:06:13.543Z,14.63
2019-03-31T13:08:40.175Z,16.20
2019-03-31T13:11:07.311Z,14.97
2019-03-31T13:13:34.538Z,14.53
2019-03-31T13:16:11.562Z,15.35
2019-03-31T13:18:38.523Z,14.80
2019-03-31T13:21:05.605Z,13.63
2019-03-31T13:23:33.004Z,14.13
2019-03-31T13:26:00.304Z,13.48
2019-03-31T13:28:27.166Z,13.38
2019-03-31T13:30:53.985Z,14.18
2019-03-31T13:33:21.159Z,13.98
2019-03-31T13:35:47.858Z,12.60
2019-03-31T13:38:16.209Z,11.50
2019-03-31T13:40:43.148Z,11.08
2019-03-31T13:43:09.852Z,12.03
2019-03-31T13:45:37.385Z,12.40
2019-03-31T13:48:04.136Z,12.98
2019-03-31T13:50:30.804Z,12.25
2019-03-31T13:52:57.592Z,12.05
2019-03-31T13:55:24.216Z,11.68
2019-03-31T13:57:52.660Z,11.68
2019-03-31T14:00:35.430Z,10.75
2019-03-31T14:03:02.339Z,10.38
2019-03-31T14:05:29.086Z,11.08
2019-03-31T14:07:57.885Z,11.30
2019-03-31T14:10:24.877Z,13.22
2019-03-31T14:12:51.658Z,14.10
2019-03-31T14:15:19.661Z,12.82
2019-03-31T14:17:46.719Z,13.32
2019-03-31T14:20:13.731Z,12.60
2019-03-31T14:22:40.844Z,11.93
2019-03-31T14:25:07.782Z,13.93
2019-03-31T14:27:34.477Z,13.15
2019-03-31T14:30:01.261Z,13.60
2019-03-31T14:32:28.106Z,12.00
2019-03-31T14:34:56.264Z,12.07
2019-03-31T14:37:23.226Z,12.13
2019-03-31T14:39:49.955Z,12.55
2019-03-31T14:42:20.632Z,12.82
2019-03-31T14:44:47.280Z,13.15
2019-03-31T14:47:14.872Z,13.15
2019-03-31T14:49:41.665Z,12.13
2019-03-31T14:52:08.491Z,11.45
2019-03-31T14:54:35.152Z,11.38
2019-03-31T14:57:02.760Z,13.70
2019-03-31T14:59:29.367Z,13.18
2019-03-31T15:01:56.438Z,11.88
2019-03-31T15:04:29.774Z,10.58
2019-03-31T15:06:56.489Z,11.63
2019-03-31T15:09:23.158Z,11.05
2019-03-31T15:11:50.375Z,10.10
2019-03-31T15:14:17.232Z,11.30
2019-03-31T15:16:44.382Z,11.68
2019-03-31T15:19:11.124Z,11.70
2019-03-31T15:21:43.816Z,10.48
2019-03-31T15:24:07.579Z,9.53
2019-03-31T15:26:37.170Z,10.55
2019-03-31T15:29:04.380Z,10.40
2019-03-31T15:31:36.101Z,10.03
2019-03-31T15:34:01.926Z,10.43
2019-03-31T15:36:29.189Z,9.60
2019-03-31T15:39:08.314Z,9.23
2019-03-31T15:41:24.996Z,9.08
2019-03-31T15:43:52.167Z,7.83
2019-03-31T15:46:20.475Z,8.28
2019-03-31T15:48:50.255Z,7.37
2019-03-31T15:51:17.040Z,8.13
2019-03-31T15:53:44.055Z,7.60
2019-03-31T15:56:11.275Z,8.15
2019-03-31T15:58:38.140Z,8.50
2019-03-31T16:01:04.840Z,7.78
2019-03-31T16:03:33.462Z,8.55
2019-03-31T16:06:00.423Z,8.40
2019-03-31T16:08:27.006Z,7.90
2019-03-31T16:10:53.471Z,8.18
2019-03-31T16:13:20.558Z,7.35
2019-03-31T16:15:46.746Z,7.17
2019-03-31T16:18:13.059Z,7.62
2019-03-31T16:21:02.311Z,7.35
2019-03-31T16:23:29.742Z,7.78
2019-03-31T16:25:57.627Z,7.33
2019-03-31T16:28:23.716Z,6.72
2019-03-31T16:30:50.228Z,7.22
2019-03-31T16:33:16.471Z,6.08
2019-03-31T16:35:48.975Z,6.35
2019-03-31T16:38:15.041Z,6.92
2019-03-31T16:40:41.205Z,6.67
2019-03-31T16:43:07.271Z,7.00
2019-03-31T16:45:33.825Z,5.80
2019-03-31T16:47:59.953Z,5.80
2019-03-31T16:50:30.321Z,5.67
2019-03-31T16:52:56.389Z,5.22
2019-03-31T16:55:24.962Z,4.70
2019-03-31T16:57:50.351Z,4.40
2019-03-31T17:00:19.135Z,4.20
2019-03-31T17:02:49.707Z,4.80
2019-03-31T17:05:22.282Z,4.55
2019-03-31T17:07:44.746Z,4.00
2019-03-31T17:10:11.142Z,4.78
2019-03-31T17:12:37.254Z,4.50
2019-03-31T17:15:03.340Z,4.00
2019-03-31T17:17:30.668Z,4.85
2019-03-31T17:19:56.766Z,4.17
2019-03-31T17:22:23.229Z,4.25
2019-03-31T17:24:49.877Z,3.98
2019-03-31T17:27:16.294Z,4.67
2019-03-31T17:29:42.688Z,3.92
2019-03-31T17:32:08.628Z,3.90
2019-03-31T17:34:34.634Z,3.70
2019-03-31T17:37:00.644Z,3.83
2019-03-31T17:39:26.739Z,3.60
2019-03-31T17:41:54.551Z,3.80
2019-03-31T17:44:20.432Z,3.95
2019-03-31T17:46:46.296Z,3.80
2019-03-31T17:49:12.573Z,3.73
2019-03-31T17:51:38.564Z,2.85
2019-03-31T17:54:06.163Z,3.90
2019-03-31T17:56:33.589Z,3.47
2019-03-31T17:58:59.478Z,3.37
2019-03-31T18:01:25.776Z,4.17
2019-03-31T18:03:51.730Z,3.70
2019-03-31T18:06:28.659Z,3.90
2019-03-31T18:08:54.793Z,3.98
2019-03-31T18:11:20.813Z,4.05
2019-03-31T18:13:46.825Z,4.42
2019-03-31T18:16:13.104Z,4.58
2019-03-31T18:18:39.327Z,3.75
2019-03-31T18:21:05.426Z,4.40
2019-03-31T18:23:31.950Z,4.87
2019-03-31T18:26:21.960Z,3.87
2019-03-31T18:28:51.219Z,3.00
2019-03-31T18:31:17.305Z,3.90
2019-03-31T18:33:43.432Z,3.05
2019-03-31T18:36:09.518Z,3.52
2019-03-31T18:38:38.426Z,3.77
2019-03-31T18:41:04.535Z,3.55
2019-03-31T18:43:30.758Z,3.75
2019-03-31T18:46:00.259Z,3.37
2019-03-31T18:48:26.874Z,3.17
2019-03-31T18:50:53.195Z,3.67
2019-03-31T18:53:34.216Z,3.93
2019-03-31T18:56:22.134Z,3.22
2019-03-31T18:59:13.118Z,3.70
2019-03-31T19:02:01.246Z,3.40
2019-03-31T19:04:46.101Z,3.60
2019-03-31T19:07:43.490Z,3.47
2019-03-31T19:10:31.061Z,3.30
2019-03-31T19:13:31.380Z,3.35
2019-03-31T19:16:16.637Z,3.52
2019-03-31T19:18:53.530Z,4.13
2019-03-31T19:21:38.673Z,2.35
2019-03-31T19:24:18.047Z,3.05
2019-03-31T19:27:18.393Z,3.10
2019-03-31T19:30:01.470Z,2.85
2019-03-31T19:32:46.778Z,3.25
2019-03-31T19:35:43.768Z,3.22
2019-03-31T19:38:18.549Z,3.58
2019-03-31T19:41:04.519Z,2.83
2019-03-31T19:43:49.681Z,3.47
2019-03-31T19:46:43.924Z,2.98
2019-03-31T19:49:47.369Z,2.50
2019-03-31T19:52:27.605Z,2.40
2019-03-31T19:55:05.502Z,2.77
2019-03-31T19:57:46.485Z,2.60
2019-03-31T20:00:31.035Z,2.57
2019-03-31T20:03:18.768Z,2.42
2019-03-31T20:06:02.754Z,2.67
2019-03-31T20:08:45.165Z,1.93
2019-03-31T20:11:15.578Z,2.90
2019-03-31T20:14:07.106Z,2.00
2019-03-31T20:16:40.912Z,2.10
2019-03-31T20:19:31.735Z,2.20
2019-03-31T20:22:06.498Z,2.60
2019-03-31T20:25:00.384Z,2.42
2019-03-31T20:27:48.255Z,2.00
2019-03-31T20:30:30.444Z,2.47
2019-03-31T20:33:15.269Z,2.20
2019-03-31T20:35:50.535Z,2.45
2019-03-31T20:38:25.684Z,2.60
2019-03-31T20:41:09.473Z,2.12
2019-03-31T20:44:00.510Z,2.20
2019-03-31T20:46:26.554Z,2.90
2019-03-31T20:48:52.982Z,3.50
2019-03-31T20:51:18.809Z,3.43
2019-03-31T20:53:44.735Z,2.27
2019-03-31T20:56:13.077Z,2.53
2019-03-31T20:58:39.192Z,2.50
2019-03-31T21:01:05.461Z,2.47
2019-03-31T21:03:31.328Z,2.58
2019-03-31T21:05:57.639Z,2.37
2019-03-31T21:08:23.620Z,2.77
2019-03-31T21:10:49.857Z,2.40
2019-03-31T21:13:15.667Z,2.47
2019-03-31T21:15:41.755Z,3.37
2019-03-31T21:18:07.966Z,2.73
2019-03-31T21:20:34.327Z,2.33
2019-03-31T21:23:03.319Z,2.10
2019-03-31T21:25:29.566Z,2.90
2019-03-31T21:27:55.586Z,2.40
2019-03-31T21:30:21.531Z,2.72
2019-03-31T21:32:47.751Z,2.10
2019-03-31T21:35:13.819Z,2.60
2019-03-31T21:37:39.605Z,2.40
2019-03-31T21:40:06.088Z,2.40
2019-03-31T21:42:32.164Z,2.20
2019-03-31T21:44:58.027Z,2.10
2019-03-31T21:47:23.808Z,2.25
2019-03-31T21:49:49.600Z,2.53
2019-03-31T21:52:17.976Z,2.67
2019-03-31T21:54:43.793Z,2.63
2019-03-31T21:57:09.656Z,2.70
2019-03-31T21:59:35.736Z,2.87
2019-03-31T22:02:01.693Z,2.80
2019-03-31T22:04:27.811Z,3.00
2019-03-31T22:06:53.640Z,2.93
2019-03-31T22:09:19.457Z,2.87
2019-03-31T22:11:45.275Z,2.93
2019-03-31T22:14:11.094Z,2.60
2019-03-31T22:16:36.964Z,3.27
2019-03-31T22:19:02.812Z,2.73
2019-03-31T22:21:29.029Z,2.17
2019-03-31T22:23:58.122Z,2.53
2019-03-31T22:26:22.441Z,2.90
2019-03-31T22:28:48.452Z,2.10
2019-03-31T22:31:17.192Z,3.50
2019-03-31T22:33:42.989Z,2.40
2019-03-31T22:36:24.577Z,2.43
2019-03-31T22:38:51.036Z,2.90
2019-03-31T22:41:16.991Z,2.47
2019-03-31T22:43:42.810Z,2.37
2019-03-31T22:46:08.649Z,2.37
2019-03-31T22:48:34.476Z,2.07
2019-03-31T22:51:00.312Z,2.27
2019-03-31T22:53:26.602Z,2.43
2019-03-31T22:55:52.485Z,2.60
2019-03-31T22:58:18.477Z,2.30
2019-03-31T23:00:44.298Z,2.10
2019-03-31T23:03:10.208Z,2.40
2019-03-31T23:05:36.155Z,2.13
2019-03-31T23:08:02.016Z,1.90
2019-03-31T23:10:27.962Z,2.23
2019-03-31T23:12:53.872Z,1.87
2019-03-31T23:15:20.881Z,2.37
2019-03-31T23:17:46.835Z,1.87
2019-03-31T23:20:12.724Z,2.17
2019-03-31T23:22:38.529Z,2.17
2019-03-31T23:25:06.447Z,2.20
2019-03-31T23:27:32.637Z,1.90
2019-03-31T23:29:58.715Z,2.03
2019-03-31T23:32:24.569Z,2.20
2019-03-31T23:34:50.476Z,2.37
2019-03-31T23:37:16.981Z,2.20
2019-03-31T23:39:42.770Z,2.03
2019-03-31T23:42:08.605Z,2.20
2019-03-31T23:44:36.660Z,2.03
2019-03-31T23:47:02.509Z,2.33
2019-03-31T23:49:28.311Z,2.50
2019-03-31T23:51:54.597Z,1.93
2019-03-31T23:54:20.712Z,2.10
2019-03-31T23:56:46.608Z,2.70
2019-03-31T23:59:12.434Z,2.60
